Time;durP1;ratioP1;P1;durP2;ratioP2;P2;SDS_P1;SDS_P2;PMS_P1;PMS_P2;Temp;Humidity;BMP_temperature;BMP_pressure;BME280_temperature;BME280_humidity;BME280_pressure;Samples;Min_cycle;Max_cycle;Signal;HPM_P1;HPM_P2
2023/10/01 00:01:53;;;;;;;6.93;4.63;;;;;;;;;;5074031;28;20276;-46
2023/10/01 00:04:20;;;;;;;6.53;3.47;;;;;;;;;;5075438;28;20404;-40
2023/10/01 00:06:47;;;;;;;5.53;3.53;;;;;;;;;;5079117;28;20228;-41
2023/10/01 00:09:19;;;;;;;6.83;4.13;;;;;;;;;;5082982;28;20201;-44
2023/10/01 00:11:47;;;;;;;8.43;4.33;;;;;;;;;;5082446;28;20207;-42
2023/10/01 00:14:16;;;;;;;6.37;4.00;;;;;;;;;;5069774;28;20334;-46
2023/10/01 00:16:44;;;;;;;8.10;4.37;;;;;;;;;;5073056;28;20252;-45
2023/10/01 00:19:12;;;;;;;8.43;4.60;;;;;;;;;;5077432;28;20232;-42
2023/10/01 00:21:39;;;;;;;9.63;4.60;;;;;;;;;;5079797;28;20294;-45
2023/10/01 00:24:07;;;;;;;5.50;3.60;;;;;;;;;;5074229;28;20212;-42
2023/10/01 00:26:36;;;;;;;6.53;4.40;;;;;;;;;;5072538;28;20212;-42
2023/10/01 00:29:03;;;;;;;7.30;4.03;;;;;;;;;;5084916;28;20227;-45
2023/10/01 00:31:31;;;;;;;6.80;4.27;;;;;;;;;;5072683;28;20419;-45
2023/10/01 00:34:00;;;;;;;6.43;4.17;;;;;;;;;;5073595;28;20205;-45
2023/10/01 00:36:29;;;;;;;7.70;4.37;;;;;;;;;;5079198;28;20211;-44
2023/10/01 00:38:56;;;;;;;6.60;4.60;;;;;;;;;;5076768;28;20251;-43
2023/10/01 00:41:23;;;;;;;5.37;3.43;;;;;;;;;;5067444;28;20224;-43
2023/10/01 00:43:50;;;;;;;6.63;4.43;;;;;;;;;;5080819;28;20296;-39
2023/10/01 00:46:18;;;;;;;6.00;3.70;;;;;;;;;;5073952;28;20229;-46
2023/10/01 00:48:46;;;;;;;6.83;4.10;;;;;;;;;;5068312;28;20201;-43
2023/10/01 00:51:14;;;;;;;9.10;4.03;;;;;;;;;;5079894;28;20221;-42
2023/10/01 00:53:42;;;;;;;6.77;4.03;;;;;;;;;;5076942;28;20548;-45
2023/10/01 00:56:09;;;;;;;7.63;3.87;;;;;;;;;;5080188;28;20208;-42
2023/10/01 00:58:37;;;;;;;4.27;3.30;;;;;;;;;;5085237;28;20620;-45
2023/10/01 01:01:07;;;;;;;6.13;3.80;;;;;;;;;;5073103;28;20280;-43
2023/10/01 01:03:35;;;;;;;8.93;4.20;;;;;;;;;;5078009;28;20284;-43
2023/10/01 01:06:17;;;;;;;7.13;4.40;;;;;;;;;;5073907;28;20292;-44
2023/10/01 01:08:52;;;;;;;6.53;3.83;;;;;;;;;;5067705;28;20278;-44
2023/10/01 01:11:21;;;;;;;7.57;4.37;;;;;;;;;;5086230;28;20228;-46
2023/10/01 01:13:50;;;;;;;7.13;4.60;;;;;;;;;;5081415;28;20628;-39
2023/10/01 01:16:19;;;;;;;8.27;4.47;;;;;;;;;;5068183;28;20213;-39
2023/10/01 01:18:51;;;;;;;5.93;3.87;;;;;;;;;;5085412;28;20201;-44
2023/10/01 01:21:18;;;;;;;7.30;3.73;;;;;;;;;;5083579;28;20311;-40
2023/10/01 01:23:50;;;;;;;7.17;4.03;;;;;;;;;;5086887;28;20288;-43
2023/10/01 01:26:20;;;;;;;8.27;4.23;;;;;;;;;;5071784;28;20204;-43
2023/10/01 01:28:48;;;;;;;8.47;4.23;;;;;;;;;;5080387;28;20208;-43
2023/10/01 01:31:16;;;;;;;8.27;4.37;;;;;;;;;;5066424;28;20231;-43
2023/10/01 01:33:52;;;;;;;7.40;3.90;;;;;;;;;;5065135;28;20205;-44
2023/10/01 01:36:20;;;;;;;6.83;4.13;;;;;;;;;;5070200;28;20209;-38
2023/10/01 01:39:09;;;;;;;6.53;4.10;;;;;;;;;;5075336;28;20197;-43
2023/10/01 01:41:42;;;;;;;7.77;3.87;;;;;;;;;;5070732;28;20667;-45
2023/10/01 01:44:11;;;;;;;6.80;3.30;;;;;;;;;;5070653;28;20664;-45
2023/10/01 01:46:47;;;;;;;8.53;4.13;;;;;;;;;;5068058;28;20201;-44
2023/10/01 01:49:17;;;;;;;4.67;3.23;;;;;;;;;;5080026;28;20200;-44
2023/10/01 01:51:56;;;;;;;8.87;4.57;;;;;;;;;;5084998;28;20200;-40
2023/10/01 01:54:26;;;;;;;6.40;3.83;;;;;;;;;;5084665;28;20223;-43
2023/10/01 01:56:55;;;;;;;7.47;4.30;;;;;;;;;;5079281;28;20223;-40
2023/10/01 01:59:24;;;;;;;7.57;4.43;;;;;;;;;;5075139;28;20225;-44
2023/10/01 02:01:52;;;;;;;6.57;3.90;;;;;;;;;;5077042;28;20200;-46
2023/10/01 02:04:22;;;;;;;7.87;4.37;;;;;;;;;;5077620;28;20290;-41
2023/10/01 02:06:50;;;;;;;5.20;3.77;;;;;;;;;;5075750;28;20202;-43
2023/10/01 02:09:19;;;;;;;5.07;3.57;;;;;;;;;;5084159;28;20223;-44
2023/10/01 02:11:49;;;;;;;8.70;4.10;;;;;;;;;;5079883;28;20197;-39
2023/10/01 02:17:15;;;;;;;6.93;4.27;;;;;;;;;;5146601;27;20845;-46
2023/10/01 02:19:46;;;;;;;6.43;3.37;;;;;;;;;;5134204;27;20230;-42
2023/10/01 02:22:13;;;;;;;7.17;4.07;;;;;;;;;;5121893;27;20275;-42
2023/10/01 02:24:54;;;;;;;5.50;3.73;;;;;;;;;;5123072;27;20278;-40
2023/10/01 02:27:24;;;;;;;8.57;4.10;;;;;;;;;;5116816;27;20721;-42
2023/10/01 02:32:49;;;;;;;5.97;3.87;;;;;;;;;;5117439;28;20205;-40
2023/10/01 02:38:00;;;;;;;7.27;4.27;;;;;;;;;;5121909;27;20497;-45
2023/10/01 02:40:34;;;;;;;7.63;4.40;;;;;;;;;;5123979;27;20261;-43
2023/10/01 02:43:03;;;;;;;8.63;4.17;;;;;;;;;;5123700;27;20206;-40
2023/10/01 02:45:33;;;;;;;6.03;3.70;;;;;;;;;;5108569;28;20204;-44
2023/10/01 02:48:16;;;;;;;9.30;3.93;;;;;;;;;;5123683;28;20203;-45
2023/10/01 02:50:45;;;;;;;8.00;3.77;;;;;;;;;;5118636;27;20313;-46
2023/10/01 02:53:14;;;;;;;6.97;4.13;;;;;;;;;;5122944;27;20211;-43
2023/10/01 02:55:45;;;;;;;8.27;3.87;;;;;;;;;;5119421;27;20228;-42
2023/10/01 02:58:20;;;;;;;7.63;4.40;;;;;;;;;;5124130;27;20203;-43
2023/10/01 03:00:46;;;;;;;7.37;3.90;;;;;;;;;;5120774;27;20219;-43
2023/10/01 03:03:31;;;;;;;7.33;4.80;;;;;;;;;;5120600;27;20195;-42
2023/10/01 03:05:58;;;;;;;6.50;3.90;;;;;;;;;;5120567;27;20207;-42
2023/10/01 03:08:59;;;;;;;8.90;3.97;;;;;;;;;;5125053;27;20294;-43
2023/10/01 03:11:34;;;;;;;5.73;3.90;;;;;;;;;;5124069;27;20200;-45
2023/10/01 03:14:04;;;;;;;7.10;4.40;;;;;;;;;;5124253;27;20302;-46
2023/10/01 03:16:42;;;;;;;7.83;3.93;;;;;;;;;;5113908;28;20295;-46
2023/10/01 03:19:19;;;;;;;7.50;3.73;;;;;;;;;;5120449;27;20211;-46
2023/10/01 03:24:37;;;;;;;5.83;4.20;;;;;;;;;;5114612;27;20436;-43
2023/10/01 03:27:18;;;;;;;4.47;3.73;;;;;;;;;;5117732;27;20291;-42
2023/10/01 03:29:48;;;;;;;5.47;3.80;;;;;;;;;;5107937;28;20220;-44
2023/10/01 03:32:32;;;;;;;6.87;4.33;;;;;;;;;;5108223;28;20208;-42
2023/10/01 03:35:08;;;;;;;4.70;3.70;;;;;;;;;;5107759;28;20212;-44
2023/10/01 03:37:39;;;;;;;7.27;4.17;;;;;;;;;;5107396;28;20207;-43
2023/10/01 03:40:15;;;;;;;6.80;4.20;;;;;;;;;;5108869;28;20227;-42
2023/10/01 03:42:51;;;;;;;6.93;4.07;;;;;;;;;;5110818;27;20212;-42
2023/10/01 03:45:37;;;;;;;7.60;4.23;;;;;;;;;;5112547;28;20297;-41
2023/10/01 03:48:06;;;;;;;7.87;4.10;;;;;;;;;;5107433;28;20208;-43
2023/10/01 03:50:45;;;;;;;7.80;4.00;;;;;;;;;;5097935;27;20308;-44
2023/10/01 03:53:13;;;;;;;8.30;4.13;;;;;;;;;;5108662;28;20237;-43
2023/10/01 03:55:42;;;;;;;6.63;4.07;;;;;;;;;;5106046;27;20232;-40
2023/10/01 03:58:18;;;;;;;8.30;4.30;;;;;;;;;;5105002;28;20208;-44
2023/10/01 04:00:53;;;;;;;8.17;4.77;;;;;;;;;;5106713;28;20355;-39
2023/10/01 04:03:21;;;;;;;5.77;4.00;;;;;;;;;;5105831;28;20203;-44
2023/10/01 04:05:56;;;;;;;7.17;4.20;;;;;;;;;;5107395;27;20207;-42
2023/10/01 04:08:24;;;;;;;7.63;4.47;;;;;;;;;;5107306;28;20290;-46
2023/10/01 04:10:58;;;;;;;5.50;4.03;;;;;;;;;;5099608;27;20627;-43
2023/10/01 04:13:26;;;;;;;6.30;4.00;;;;;;;;;;5106362;28;20204;-45
2023/10/01 04:15:56;;;;;;;5.27;3.47;;;;;;;;;;5105870;28;20239;-41
2023/10/01 04:18:28;;;;;;;5.33;3.33;;;;;;;;;;5107133;28;20211;-41
2023/10/01 04:21:24;;;;;;;9.17;4.90;;;;;;;;;;5104211;28;20216;-41
2023/10/01 04:23:54;;;;;;;5.47;4.07;;;;;;;;;;5102068;28;20211;-43
2023/10/01 04:26:22;;;;;;;5.73;3.87;;;;;;;;;;5107284;27;20208;-43
2023/10/01 04:28:54;;;;;;;8.50;4.93;;;;;;;;;;5100591;28;20239;-43
2023/10/01 04:31:42;;;;;;;8.00;4.43;;;;;;;;;;5107392;28;20671;-43
2023/10/01 04:34:10;;;;;;;7.37;3.97;;;;;;;;;;5107088;28;20199;-45
2023/10/01 04:36:39;;;;;;;6.93;3.67;;;;;;;;;;5106322;28;20310;-44
2023/10/01 04:39:06;;;;;;;8.27;4.70;;;;;;;;;;5102568;28;20231;-44
2023/10/01 04:41:34;;;;;;;6.33;4.00;;;;;;;;;;5100091;28;20229;-43
2023/10/01 04:44:06;;;;;;;9.60;4.13;;;;;;;;;;5107006;28;20302;-42
2023/10/01 04:46:37;;;;;;;7.53;4.17;;;;;;;;;;5107965;28;20208;-40
2023/10/01 04:49:08;;;;;;;6.03;4.10;;;;;;;;;;5107385;28;20306;-44
2023/10/01 04:51:45;;;;;;;7.13;3.87;;;;;;;;;;5104377;28;20287;-41
2023/10/01 04:54:17;;;;;;;6.53;3.80;;;;;;;;;;5106468;28;20203;-44
2023/10/01 04:56:45;;;;;;;5.97;3.70;;;;;;;;;;5108631;27;20223;-44
2023/10/01 04:59:12;;;;;;;7.50;4.00;;;;;;;;;;5104537;28;20257;-41
2023/10/01 05:01:40;;;;;;;5.80;3.60;;;;;;;;;;5101718;28;20564;-43
2023/10/01 05:04:11;;;;;;;6.60;4.00;;;;;;;;;;5106571;28;20204;-41
2023/10/01 05:06:40;;;;;;;7.37;4.17;;;;;;;;;;5108719;27;20206;-42
2023/10/01 05:09:08;;;;;;;7.30;3.83;;;;;;;;;;5106651;28;20210;-43
2023/10/01 05:11:39;;;;;;;6.73;4.10;;;;;;;;;;5095246;27;20206;-44
2023/10/01 05:14:06;;;;;;;5.77;3.67;;;;;;;;;;5109668;28;20207;-42
2023/10/01 05:16:38;;;;;;;6.27;3.47;;;;;;;;;;5105338;28;20223;-40
2023/10/01 05:19:10;;;;;;;7.40;4.03;;;;;;;;;;5103776;28;20208;-45
2023/10/01 05:21:41;;;;;;;6.87;3.93;;;;;;;;;;5109293;28;20200;-44
2023/10/01 05:24:09;;;;;;;4.90;3.40;;;;;;;;;;5110498;28;20208;-42
2023/10/01 05:26:38;;;;;;;7.57;4.17;;;;;;;;;;5110395;27;20204;-45
2023/10/01 05:29:07;;;;;;;7.03;4.10;;;;;;;;;;5109450;28;20211;-42
2023/10/01 05:31:34;;;;;;;5.20;3.50;;;;;;;;;;5112590;28;20239;-40
2023/10/01 05:34:02;;;;;;;6.57;3.93;;;;;;;;;;5112703;28;20208;-45
2023/10/01 05:36:29;;;;;;;7.27;4.23;;;;;;;;;;5112628;27;20227;-42
2023/10/01 05:38:56;;;;;;;6.10;4.30;;;;;;;;;;5111745;28;20196;-44
2023/10/01 05:41:32;;;;;;;8.17;3.60;;;;;;;;;;5111193;27;20227;-36
2023/10/01 05:44:04;;;;;;;6.83;3.80;;;;;;;;;;5107490;28;20219;-42
2023/10/01 05:46:31;;;;;;;8.50;4.33;;;;;;;;;;5112490;28;20223;-40
2023/10/01 05:49:00;;;;;;;5.93;3.83;;;;;;;;;;5111106;28;20206;-42
2023/10/01 05:51:42;;;;;;;9.30;4.03;;;;;;;;;;5111720;28;20653;-40
2023/10/01 05:54:11;;;;;;;8.17;3.93;;;;;;;;;;5112485;28;20199;-42
2023/10/01 05:56:43;;;;;;;6.70;4.07;;;;;;;;;;5105588;28;20322;-46
2023/10/01 05:59:12;;;;;;;6.27;3.97;;;;;;;;;;5112019;28;20199;-42
2023/10/01 06:01:41;;;;;;;8.10;4.27;;;;;;;;;;5112313;28;20199;-41
2023/10/01 06:04:12;;;;;;;7.67;4.57;;;;;;;;;;5107436;28;20235;-41
2023/10/01 06:06:42;;;;;;;10.17;3.70;;;;;;;;;;5111434;28;20228;-43
2023/10/01 06:09:14;;;;;;;7.37;3.77;;;;;;;;;;5112481;28;20208;-39
2023/10/01 06:11:51;;;;;;;6.77;4.20;;;;;;;;;;5100587;27;20198;-38
2023/10/01 06:14:39;;;;;;;6.23;3.77;;;;;;;;;;5103897;28;20204;-41
2023/10/01 06:17:07;;;;;;;8.43;4.60;;;;;;;;;;5111397;28;20315;-42
2023/10/01 06:19:34;;;;;;;6.87;3.93;;;;;;;;;;5109478;28;20263;-44
2023/10/01 06:22:22;;;;;;;6.03;3.80;;;;;;;;;;5113412;28;20212;-42
2023/10/01 06:24:49;;;;;;;5.73;3.60;;;;;;;;;;5104771;28;20200;-38
2023/10/01 06:27:19;;;;;;;8.63;4.60;;;;;;;;;;5109414;28;20224;-38
2023/10/01 06:29:50;;;;;;;8.20;4.10;;;;;;;;;;5107681;28;20230;-43
2023/10/01 06:32:34;;;;;;;6.60;4.07;;;;;;;;;;5108586;28;20200;-42
2023/10/01 06:35:02;;;;;;;5.47;4.10;;;;;;;;;;5110398;28;20203;-39
2023/10/01 06:37:45;;;;;;;8.67;4.03;;;;;;;;;;5103153;28;20225;-43
2023/10/01 06:40:29;;;;;;;6.73;4.10;;;;;;;;;;5102792;28;20234;-42
2023/10/01 06:42:56;;;;;;;6.73;3.83;;;;;;;;;;5109921;28;20207;-44
2023/10/01 06:45:38;;;;;;;11.60;5.20;;;;;;;;;;5105706;28;20294;-43
2023/10/01 06:48:08;;;;;;;7.53;4.10;;;;;;;;;;5110781;28;20200;-44
2023/10/01 06:50:36;;;;;;;6.67;4.23;;;;;;;;;;5109872;28;20227;-43
2023/10/01 06:53:04;;;;;;;8.47;4.83;;;;;;;;;;5106535;28;20211;-42
2023/10/01 06:55:32;;;;;;;7.30;3.93;;;;;;;;;;5118758;28;20214;-42
2023/10/01 06:58:00;;;;;;;6.57;4.40;;;;;;;;;;5112320;28;20228;-44
2023/10/01 07:00:35;;;;;;;7.13;4.30;;;;;;;;;;5111345;28;20224;-38
2023/10/01 07:06:02;;;;;;;6.10;3.90;;;;;;;;;;5038886;27;20547;-42
2023/10/01 07:08:38;;;;;;;8.07;4.40;;;;;;;;;;5083893;27;20277;-43
2023/10/01 07:11:11;;;;;;;6.43;4.60;;;;;;;;;;5049455;27;20237;-46
2023/10/01 07:13:39;;;;;;;9.30;4.27;;;;;;;;;;5017734;28;20211;-39
2023/10/01 07:16:07;;;;;;;10.33;4.27;;;;;;;;;;5025224;28;20223;-42
2023/10/01 07:18:42;;;;;;;9.70;4.67;;;;;;;;;;5035074;28;20213;-45
2023/10/01 07:21:11;;;;;;;7.67;4.67;;;;;;;;;;5047735;27;20226;-43
2023/10/01 07:23:42;;;;;;;9.80;4.60;;;;;;;;;;5035528;28;20211;-42
2023/10/01 07:26:12;;;;;;;8.47;4.77;;;;;;;;;;5036710;28;20206;-43
2023/10/01 07:28:41;;;;;;;6.00;3.67;;;;;;;;;;5011807;28;20626;-44
2023/10/01 07:31:08;;;;;;;7.63;4.93;;;;;;;;;;5058880;28;20258;-41
2023/10/01 07:33:39;;;;;;;10.00;4.27;;;;;;;;;;5072568;27;20207;-45
2023/10/01 07:36:10;;;;;;;10.13;5.17;;;;;;;;;;5050247;28;20574;-44
2023/10/01 07:38:48;;;;;;;7.67;4.67;;;;;;;;;;5034068;28;20203;-41
2023/10/01 07:41:16;;;;;;;6.67;3.80;;;;;;;;;;5077684;27;20234;-39
2023/10/01 07:43:43;;;;;;;10.13;5.17;;;;;;;;;;5011440;28;20268;-45
2023/10/01 07:46:11;;;;;;;9.27;5.23;;;;;;;;;;5025814;28;20214;-41
2023/10/01 07:48:46;;;;;;;8.37;4.77;;;;;;;;;;5026706;28;20298;-41
2023/10/01 07:51:26;;;;;;;6.60;4.20;;;;;;;;;;5065665;28;20512;-45
2023/10/01 07:53:56;;;;;;;8.80;5.17;;;;;;;;;;5017963;28;20207;-42
2023/10/01 07:56:25;;;;;;;10.07;4.97;;;;;;;;;;5019054;28;20294;-42
2023/10/01 07:59:16;;;;;;;13.23;6.03;;;;;;;;;;5039212;28;20703;-39
2023/10/01 08:01:45;;;;;;;8.73;4.80;;;;;;;;;;5112351;27;20203;-42
2023/10/01 08:04:50;;;;;;;8.00;4.73;;;;;;;;;;5015462;28;20276;-42
2023/10/01 08:07:15;;;;;;;12.00;5.37;;;;;;;;;;5020647;28;20253;-41
2023/10/01 08:09:46;;;;;;;9.77;5.30;;;;;;;;;;5036520;28;20818;-41
2023/10/01 08:12:14;;;;;;;8.63;5.60;;;;;;;;;;5038412;27;20232;-42
2023/10/01 08:14:40;;;;;;;9.93;5.43;;;;;;;;;;5033267;28;20209;-42
2023/10/01 08:17:08;;;;;;;9.00;5.33;;;;;;;;;;5012418;28;20207;-40
2023/10/01 08:19:44;;;;;;;12.13;5.87;;;;;;;;;;5059461;28;20285;-41
2023/10/01 08:22:23;;;;;;;12.47;5.90;;;;;;;;;;5014263;28;20199;-39
2023/10/01 08:24:51;;;;;;;11.03;5.47;;;;;;;;;;5052994;28;20211;-40
2023/10/01 08:27:31;;;;;;;10.03;5.83;;;;;;;;;;5000295;28;20306;-48
2023/10/01 08:32:49;;;;;;;9.97;5.17;;;;;;;;;;5058086;28;20287;-41
2023/10/01 08:35:22;;;;;;;9.80;5.87;;;;;;;;;;5011900;28;20204;-41
2023/10/01 08:37:59;;;;;;;9.67;5.57;;;;;;;;;;5052620;28;20286;-43
2023/10/01 08:40:27;;;;;;;10.07;5.87;;;;;;;;;;5045421;28;20230;-41
2023/10/01 08:42:58;;;;;;;9.33;5.40;;;;;;;;;;5004149;28;20210;-37
2023/10/01 08:45:34;;;;;;;9.00;5.33;;;;;;;;;;5011026;28;20255;-40
2023/10/01 08:48:02;;;;;;;8.63;5.33;;;;;;;;;;5004022;28;20469;-44
2023/10/01 08:50:36;;;;;;;11.80;6.60;;;;;;;;;;5006555;28;20678;-44
2023/10/01 08:53:10;;;;;;;9.07;5.93;;;;;;;;;;5033986;28;20204;-40
2023/10/01 08:56:04;;;;;;;11.93;6.57;;;;;;;;;;5085634;28;20646;-44
2023/10/01 08:58:41;;;;;;;11.97;6.67;;;;;;;;;;5002229;28;20258;-43
2023/10/01 09:01:12;;;;;;;12.70;6.70;;;;;;;;;;5005737;28;20582;-45
2023/10/01 09:03:39;;;;;;;11.57;6.10;;;;;;;;;;5051788;28;20218;-43
2023/10/01 09:06:08;;;;;;;12.17;6.10;;;;;;;;;;4995713;28;20212;-40
2023/10/01 09:08:43;;;;;;;10.43;6.00;;;;;;;;;;5050385;28;20252;-43
2023/10/01 09:11:13;;;;;;;10.37;5.87;;;;;;;;;;5000827;28;20227;-41
2023/10/01 09:13:47;;;;;;;10.00;5.67;;;;;;;;;;5010073;28;20228;-45
2023/10/01 09:16:16;;;;;;;10.80;6.27;;;;;;;;;;5042777;28;20201;-44
2023/10/01 09:19:03;;;;;;;9.40;6.13;;;;;;;;;;5026783;28;20219;-43
2023/10/01 09:21:38;;;;;;;9.67;5.60;;;;;;;;;;5037681;28;20203;-45
2023/10/01 09:24:32;;;;;;;7.97;5.30;;;;;;;;;;5010060;28;20563;-42
2023/10/01 09:27:08;;;;;;;10.47;6.27;;;;;;;;;;4997842;28;20204;-39
2023/10/01 09:29:43;;;;;;;13.47;6.20;;;;;;;;;;5092341;28;20255;-43
2023/10/01 09:32:11;;;;;;;10.07;5.63;;;;;;;;;;5051679;28;20210;-42
2023/10/01 09:34:46;;;;;;;12.47;6.17;;;;;;;;;;5006610;28;21190;-43
2023/10/01 09:37:17;;;;;;;10.70;6.20;;;;;;;;;;5004758;28;20218;-40
2023/10/01 09:39:45;;;;;;;9.77;5.60;;;;;;;;;;5014510;28;20247;-43
2023/10/01 09:42:26;;;;;;;12.97;6.80;;;;;;;;;;4998658;28;20207;-43
2023/10/01 09:44:53;;;;;;;12.03;5.33;;;;;;;;;;5002954;28;20572;-44
2023/10/01 09:47:27;;;;;;;10.43;5.20;;;;;;;;;;5010094;28;20214;-45
2023/10/01 09:49:55;;;;;;;10.73;5.30;;;;;;;;;;5006101;28;20234;-45
2023/10/01 09:52:30;;;;;;;10.90;5.90;;;;;;;;;;5011000;28;20207;-40
2023/10/01 09:55:02;;;;;;;10.73;6.17;;;;;;;;;;5018884;28;20195;-44
2023/10/01 09:57:34;;;;;;;14.33;5.97;;;;;;;;;;5049246;28;20199;-45
2023/10/01 10:00:14;;;;;;;9.10;5.10;;;;;;;;;;5023841;28;20255;-43
2023/10/01 10:02:51;;;;;;;9.70;5.43;;;;;;;;;;5019630;28;20237;-42
2023/10/01 10:05:24;;;;;;;10.83;5.30;;;;;;;;;;5040117;28;20242;-46
2023/10/01 10:07:52;;;;;;;12.07;6.00;;;;;;;;;;5050264;28;20258;-45
2023/10/01 10:10:24;;;;;;;14.87;6.00;;;;;;;;;;5035358;28;20251;-43
2023/10/01 10:12:56;;;;;;;8.87;5.30;;;;;;;;;;5003237;28;20203;-45
2023/10/01 10:15:46;;;;;;;12.30;5.50;;;;;;;;;;5087781;28;20199;-45
2023/10/01 10:18:16;;;;;;;10.20;5.47;;;;;;;;;;5004111;28;20207;-45
2023/10/01 10:20:58;;;;;;;10.00;5.57;;;;;;;;;;5006718;28;20223;-39
2023/10/01 10:23:30;;;;;;;11.10;5.17;;;;;;;;;;5050057;28;20215;-45
2023/10/01 10:26:13;;;;;;;12.20;5.83;;;;;;;;;;5004733;28;20215;-40
2023/10/01 10:28:57;;;;;;;11.27;5.93;;;;;;;;;;5011227;28;20206;-41
2023/10/01 10:31:30;;;;;;;9.33;5.13;;;;;;;;;;5033232;28;20552;-43
2023/10/01 10:34:24;;;;;;;9.83;4.90;;;;;;;;;;5006232;28;20234;-42
2023/10/01 10:36:51;;;;;;;8.60;4.83;;;;;;;;;;5039644;28;20260;-45
2023/10/01 10:39:42;;;;;;;12.90;4.87;;;;;;;;;;5035610;28;20203;-39
2023/10/01 10:42:27;;;;;;;9.13;5.20;;;;;;;;;;5018279;28;20199;-40
2023/10/01 10:45:21;;;;;;;10.03;5.03;;;;;;;;;;5059800;28;20215;-44
2023/10/01 10:48:01;;;;;;;11.97;5.27;;;;;;;;;;5066721;28;20211;-42
2023/10/01 10:50:44;;;;;;;9.00;4.43;;;;;;;;;;5025990;28;20231;-42
2023/10/01 10:53:19;;;;;;;9.97;5.10;;;;;;;;;;5008917;28;20214;-42
2023/10/01 10:55:52;;;;;;;8.90;4.60;;;;;;;;;;5024778;28;20215;-40
2023/10/01 10:58:19;;;;;;;11.63;4.97;;;;;;;;;;5035828;28;20192;-43
2023/10/01 11:00:47;;;;;;;9.60;5.20;;;;;;;;;;5059890;28;20270;-39
2023/10/01 11:03:16;;;;;;;10.67;5.40;;;;;;;;;;5036351;28;20200;-40
2023/10/01 11:05:50;;;;;;;8.23;4.97;;;;;;;;;;5040192;28;20594;-41
2023/10/01 11:08:25;;;;;;;14.37;5.13;;;;;;;;;;5039032;28;20280;-43
2023/10/01 11:10:55;;;;;;;9.40;5.03;;;;;;;;;;5000796;28;20260;-45
2023/10/01 11:13:38;;;;;;;11.57;5.17;;;;;;;;;;4998428;28;20200;-41
2023/10/01 11:16:16;;;;;;;11.87;5.27;;;;;;;;;;5043776;28;20199;-41
2023/10/01 11:18:45;;;;;;;9.67;4.63;;;;;;;;;;5051150;28;20192;-46
2023/10/01 11:21:20;;;;;;;12.97;4.67;;;;;;;;;;5017557;28;20243;-41
2023/10/01 11:23:49;;;;;;;9.07;4.70;;;;;;;;;;5049484;28;20229;-41
2023/10/01 11:26:27;;;;;;;10.30;5.30;;;;;;;;;;5005063;28;20233;-44
2023/10/01 11:28:57;;;;;;;11.00;5.63;;;;;;;;;;5017931;28;20230;-41
2023/10/01 11:31:24;;;;;;;10.63;5.10;;;;;;;;;;5035378;28;20290;-43
2023/10/01 11:34:03;;;;;;;9.50;4.60;;;;;;;;;;5008349;28;20582;-44
2023/10/01 11:36:36;;;;;;;10.00;5.33;;;;;;;;;;4999573;28;20203;-41
2023/10/01 11:39:04;;;;;;;13.43;5.63;;;;;;;;;;5011865;28;20215;-45
2023/10/01 11:41:38;;;;;;;12.57;5.40;;;;;;;;;;5000631;28;20216;-40
2023/10/01 11:44:08;;;;;;;9.60;4.87;;;;;;;;;;5021171;28;20291;-43
2023/10/01 11:46:39;;;;;;;10.17;4.80;;;;;;;;;;5028151;28;20269;-41
2023/10/01 11:49:17;;;;;;;8.47;5.07;;;;;;;;;;5000709;28;20243;-43
2023/10/01 11:51:45;;;;;;;12.53;5.50;;;;;;;;;;5047992;28;20267;-41
2023/10/01 11:54:13;;;;;;;9.43;4.93;;;;;;;;;;5070789;28;20219;-41
2023/10/01 11:56:41;;;;;;;10.10;5.03;;;;;;;;;;5005520;28;20196;-38
2023/10/01 11:59:10;;;;;;;9.07;5.63;;;;;;;;;;5071233;28;20299;-42
2023/10/01 12:01:47;;;;;;;10.03;5.27;;;;;;;;;;5073500;28;20214;-40
2023/10/01 12:04:21;;;;;;;8.37;4.70;;;;;;;;;;5007228;28;20216;-40
2023/10/01 12:06:48;;;;;;;8.13;4.90;;;;;;;;;;5002696;28;20634;-41
2023/10/01 12:09:18;;;;;;;9.53;4.57;;;;;;;;;;5037496;28;20261;-41
2023/10/01 12:12:02;;;;;;;12.67;5.50;;;;;;;;;;5036229;28;20208;-40
2023/10/01 12:14:29;;;;;;;13.33;5.53;;;;;;;;;;5027250;28;20208;-43
2023/10/01 12:16:57;;;;;;;8.97;5.13;;;;;;;;;;5010727;28;20272;-42
2023/10/01 12:19:26;;;;;;;9.77;5.10;;;;;;;;;;5041918;28;20313;-42
2023/10/01 12:22:06;;;;;;;10.73;4.93;;;;;;;;;;5041152;28;20215;-42
2023/10/01 12:24:39;;;;;;;8.10;4.37;;;;;;;;;;5047261;28;20208;-40
2023/10/01 12:27:07;;;;;;;9.13;4.63;;;;;;;;;;5031475;28;20231;-42
2023/10/01 12:29:43;;;;;;;9.73;4.90;;;;;;;;;;5009589;28;20258;-41
2023/10/01 12:32:11;;;;;;;11.17;4.93;;;;;;;;;;5032183;28;20204;-40
2023/10/01 12:34:40;;;;;;;10.03;5.03;;;;;;;;;;5033017;28;20208;-42
2023/10/01 12:37:35;;;;;;;8.90;5.10;;;;;;;;;;5016820;28;20208;-43
2023/10/01 12:40:14;;;;;;;7.97;5.20;;;;;;;;;;5052902;28;20225;-41
2023/10/01 12:42:45;;;;;;;9.47;4.83;;;;;;;;;;5041102;28;20198;-40
2023/10/01 12:45:14;;;;;;;9.40;4.77;;;;;;;;;;5026261;28;20201;-42
2023/10/01 12:47:50;;;;;;;9.57;5.17;;;;;;;;;;5071754;28;20209;-45
2023/10/01 12:50:26;;;;;;;10.17;4.63;;;;;;;;;;4997722;28;20376;-42
2023/10/01 12:53:18;;;;;;;11.07;4.60;;;;;;;;;;5015988;28;20210;-42
2023/10/01 12:55:51;;;;;;;10.13;5.03;;;;;;;;;;5025431;28;20215;-41
2023/10/01 12:58:19;;;;;;;8.73;4.63;;;;;;;;;;5004466;28;20786;-41
2023/10/01 13:00:47;;;;;;;9.30;4.90;;;;;;;;;;5013133;28;20256;-40
2023/10/01 13:03:19;;;;;;;9.33;4.80;;;;;;;;;;5087056;28;20241;-42
2023/10/01 13:05:49;;;;;;;10.07;4.33;;;;;;;;;;5019217;28;20229;-40
2023/10/01 13:08:27;;;;;;;9.07;4.23;;;;;;;;;;5070193;28;20208;-42
2023/10/01 13:10:54;;;;;;;11.20;5.00;;;;;;;;;;5015122;27;20315;-42
2023/10/01 13:13:29;;;;;;;10.60;4.97;;;;;;;;;;5021285;28;20212;-42
2023/10/01 13:15:56;;;;;;;9.37;4.40;;;;;;;;;;5010958;28;20228;-41
2023/10/01 13:18:28;;;;;;;8.33;4.03;;;;;;;;;;5010775;27;20211;-40
2023/10/01 13:21:06;;;;;;;8.60;4.80;;;;;;;;;;5000829;28;20240;-42
2023/10/01 13:23:41;;;;;;;9.13;4.67;;;;;;;;;;5011206;28;20205;-41
2023/10/01 13:26:19;;;;;;;9.87;4.53;;;;;;;;;;5007169;28;20277;-42
2023/10/01 13:28:47;;;;;;;7.20;3.57;;;;;;;;;;5004866;28;20235;-45
2023/10/01 13:34:06;;;;;;;6.17;4.00;;;;;;;;;;5007913;28;20205;-39
2023/10/01 13:36:47;;;;;;;7.73;4.17;;;;;;;;;;5023089;28;20204;-41
2023/10/01 13:39:25;;;;;;;7.50;4.37;;;;;;;;;;5003797;28;20290;-40
2023/10/01 14:09:51;;;;;;;6.37;3.30;;;;;;;;;;5036472;28;20302;-38
2023/10/01 14:15:04;;;;;;;7.00;4.23;;;;;;;;;;5008922;27;20209;-45
2023/10/01 14:17:32;;;;;;;6.67;3.43;;;;;;;;;;5008891;28;20207;-42
2023/10/01 14:19:59;;;;;;;7.10;3.73;;;;;;;;;;5009380;28;20236;-40
2023/10/01 14:22:29;;;;;;;8.37;3.90;;;;;;;;;;4997206;28;20202;-44
2023/10/01 14:24:57;;;;;;;6.93;3.93;;;;;;;;;;5007367;28;20232;-44
2023/10/01 14:27:29;;;;;;;7.50;3.60;;;;;;;;;;5000098;28;20218;-41
2023/10/01 14:30:24;;;;;;;6.83;3.70;;;;;;;;;;5006634;28;20233;-39
2023/10/01 14:32:51;;;;;;;7.67;3.97;;;;;;;;;;5009678;28;20210;-40
2023/10/01 14:35:19;;;;;;;7.90;3.97;;;;;;;;;;5008340;28;20206;-41
2023/10/01 14:37:54;;;;;;;6.90;3.70;;;;;;;;;;5007740;28;20217;-39
2023/10/01 14:40:24;;;;;;;6.43;3.80;;;;;;;;;;5021243;28;20214;-44
2023/10/01 14:42:58;;;;;;;7.47;4.37;;;;;;;;;;5001147;28;20220;-43
2023/10/01 14:45:33;;;;;;;7.80;4.13;;;;;;;;;;5067232;28;20201;-44
2023/10/01 14:48:06;;;;;;;7.07;3.80;;;;;;;;;;5019324;28;20217;-43
2023/10/01 14:50:39;;;;;;;7.77;3.67;;;;;;;;;;4995191;28;20229;-45
2023/10/01 14:53:07;;;;;;;7.97;4.07;;;;;;;;;;5007726;28;20215;-44
2023/10/01 14:55:40;;;;;;;8.77;4.27;;;;;;;;;;5027657;28;20209;-39
2023/10/01 14:58:15;;;;;;;8.23;3.97;;;;;;;;;;5015104;28;20221;-41
2023/10/01 15:00:52;;;;;;;8.50;3.90;;;;;;;;;;5069191;28;20225;-44
2023/10/01 15:03:19;;;;;;;9.13;3.90;;;;;;;;;;5003828;28;20202;-43
2023/10/01 15:05:50;;;;;;;5.60;3.37;;;;;;;;;;5047569;28;20246;-41
2023/10/01 15:08:20;;;;;;;6.27;3.50;;;;;;;;;;5049330;28;20205;-41
2023/10/01 15:10:51;;;;;;;5.43;3.50;;;;;;;;;;4996117;28;20329;-39
2023/10/01 15:13:21;;;;;;;7.17;3.70;;;;;;;;;;5003828;28;20206;-38
2023/10/01 15:15:49;;;;;;;6.73;4.10;;;;;;;;;;5008410;28;20208;-42
2023/10/01 15:18:20;;;;;;;8.20;3.60;;;;;;;;;;5009850;28;20206;-43
2023/10/01 15:20:50;;;;;;;6.97;4.07;;;;;;;;;;5004207;28;20259;-39
2023/10/01 15:23:22;;;;;;;7.33;3.80;;;;;;;;;;5022754;28;20205;-45
2023/10/01 15:25:51;;;;;;;10.00;4.27;;;;;;;;;;5062989;28;20216;-45
2023/10/01 15:28:18;;;;;;;6.57;3.63;;;;;;;;;;5006962;28;20255;-43
2023/10/01 15:30:46;;;;;;;6.93;3.50;;;;;;;;;;5012209;28;20233;-37
2023/10/01 15:33:23;;;;;;;6.83;3.93;;;;;;;;;;5025623;28;20219;-41
2023/10/01 15:35:50;;;;;;;5.90;3.40;;;;;;;;;;5058948;27;20210;-38
2023/10/01 15:38:33;;;;;;;7.60;3.80;;;;;;;;;;5010736;28;20214;-40
2023/10/01 15:41:02;;;;;;;6.03;3.60;;;;;;;;;;5047296;28;20231;-40
2023/10/01 15:43:29;;;;;;;7.80;3.63;;;;;;;;;;5026174;28;20209;-40
2023/10/01 15:46:11;;;;;;;6.83;4.10;;;;;;;;;;5027794;28;20206;-45
2023/10/01 15:48:48;;;;;;;6.33;3.70;;;;;;;;;;5005239;28;20763;-39
2023/10/01 15:51:25;;;;;;;7.90;4.07;;;;;;;;;;5003047;28;20230;-42
2023/10/01 15:53:53;;;;;;;6.73;3.97;;;;;;;;;;5049764;28;20210;-43
2023/10/01 15:56:30;;;;;;;9.53;4.33;;;;;;;;;;5055035;28;20205;-42
2023/10/01 15:58:57;;;;;;;7.33;4.00;;;;;;;;;;5004736;28;20209;-39
2023/10/01 16:01:26;;;;;;;8.60;3.50;;;;;;;;;;5011522;28;20220;-43
2023/10/01 16:03:54;;;;;;;7.47;3.87;;;;;;;;;;5048431;28;20227;-43